sensor_id;sensor_type;location;lat;lon;timestamp;temperature;humidity
3406;DHT22;10008;48.682;9.016;2023-12-28T00:00:49;8.50;87.60
3406;DHT22;10008;48.682;9.016;2023-12-28T00:03:15;8.50;88.70
3406;DHT22;10008;48.682;9.016;2023-12-28T00:05:41;8.40;88.30
3406;DHT22;10008;48.682;9.016;2023-12-28T00:08:06;8.40;90.10
3406;DHT22;10008;48.682;9.016;2023-12-28T00:10:32;8.40;90.20
3406;DHT22;10008;48.682;9.016;2023-12-28T00:12:58;8.30;90.50
3406;DHT22;10008;48.682;9.016;2023-12-28T00:15:24;8.30;88.30
3406;DHT22;10008;48.682;9.016;2023-12-28T00:17:49;8.30;90.20
3406;DHT22;10008;48.682;9.016;2023-12-28T00:20:15;8.20;89.30
3406;DHT22;10008;48.682;9.016;2023-12-28T00:22:41;8.10;88.80
3406;DHT22;10008;48.682;9.016;2023-12-28T00:25:07;8.00;90.30
3406;DHT22;10008;48.682;9.016;2023-12-28T00:27:32;8.00;90.00
3406;DHT22;10008;48.682;9.016;2023-12-28T00:30:05;7.90;90.60
3406;DHT22;10008;48.682;9.016;2023-12-28T00:32:31;7.70;91.10
3406;DHT22;10008;48.682;9.016;2023-12-28T00:34:57;7.60;90.80
3406;DHT22;10008;48.682;9.016;2023-12-28T00:37:22;7.60;91.90
3406;DHT22;10008;48.682;9.016;2023-12-28T00:39:50;7.60;92.00
3406;DHT22;10008;48.682;9.016;2023-12-28T00:42:18;7.60;92.00
3406;DHT22;10008;48.682;9.016;2023-12-28T00:44:45;7.60;91.80
3406;DHT22;10008;48.682;9.016;2023-12-28T00:47:10;7.70;92.20
3406;DHT22;10008;48.682;9.016;2023-12-28T00:49:37;7.60;91.40
3406;DHT22;10008;48.682;9.016;2023-12-28T00:52:03;7.70;92.50
3406;DHT22;10008;48.682;9.016;2023-12-28T00:54:30;7.70;90.90
3406;DHT22;10008;48.682;9.016;2023-12-28T00:56:56;7.90;91.00
3406;DHT22;10008;48.682;9.016;2023-12-28T00:59:21;8.00;91.00
3406;DHT22;10008;48.682;9.016;2023-12-28T01:01:47;8.00;91.20
3406;DHT22;10008;48.682;9.016;2023-12-28T01:04:13;8.00;91.20
3406;DHT22;10008;48.682;9.016;2023-12-28T01:06:39;8.00;90.90
3406;DHT22;10008;48.682;9.016;2023-12-28T01:09:06;8.00;90.40
3406;DHT22;10008;48.682;9.016;2023-12-28T01:11:32;8.00;90.10
3406;DHT22;10008;48.682;9.016;2023-12-28T01:13:58;8.00;91.00
3406;DHT22;10008;48.682;9.016;2023-12-28T01:16:24;7.90;90.80
3406;DHT22;10008;48.682;9.016;2023-12-28T01:18:50;7.90;91.40
3406;DHT22;10008;48.682;9.016;2023-12-28T01:21:16;7.90;91.90
3406;DHT22;10008;48.682;9.016;2023-12-28T01:23:42;8.00;92.10
3406;DHT22;10008;48.682;9.016;2023-12-28T01:26:13;8.00;91.60
3406;DHT22;10008;48.682;9.016;2023-12-28T01:28:39;8.10;91.40
3406;DHT22;10008;48.682;9.016;2023-12-28T01:31:06;8.20;91.40
3406;DHT22;10008;48.682;9.016;2023-12-28T01:33:31;8.30;90.80
3406;DHT22;10008;48.682;9.016;2023-12-28T01:35:57;8.40;89.40
3406;DHT22;10008;48.682;9.016;2023-12-28T01:38:23;8.50;90.50
3406;DHT22;10008;48.682;9.016;2023-12-28T01:40:48;8.50;90.90
3406;DHT22;10008;48.682;9.016;2023-12-28T01:43:14;8.50;90.70
3406;DHT22;10008;48.682;9.016;2023-12-28T01:45:41;8.50;91.50
3406;DHT22;10008;48.682;9.016;2023-12-28T01:48:06;8.40;91.80
3406;DHT22;10008;48.682;9.016;2023-12-28T01:50:33;8.30;91.50
3406;DHT22;10008;48.682;9.016;2023-12-28T01:53:00;8.10;91.20
3406;DHT22;10008;48.682;9.016;2023-12-28T01:55:27;8.00;90.70
3406;DHT22;10008;48.682;9.016;2023-12-28T01:57:54;7.90;91.50
3406;DHT22;10008;48.682;9.016;2023-12-28T02:00:22;7.90;91.40
3406;DHT22;10008;48.682;9.016;2023-12-28T02:02:50;7.90;92.20
3406;DHT22;10008;48.682;9.016;2023-12-28T02:05:16;7.80;93.10
3406;DHT22;10008;48.682;9.016;2023-12-28T02:07:42;7.80;93.00
3406;DHT22;10008;48.682;9.016;2023-12-28T02:10:08;7.70;92.80
3406;DHT22;10008;48.682;9.016;2023-12-28T02:12:34;7.70;93.60
3406;DHT22;10008;48.682;9.016;2023-12-28T02:15:01;7.70;94.40
3406;DHT22;10008;48.682;9.016;2023-12-28T02:17:36;7.70;93.40
3406;DHT22;10008;48.682;9.016;2023-12-28T02:20:03;7.80;93.70
3406;DHT22;10008;48.682;9.016;2023-12-28T02:22:32;7.80;93.40
3406;DHT22;10008;48.682;9.016;2023-12-28T02:25:10;7.90;92.70
3406;DHT22;10008;48.682;9.016;2023-12-28T02:27:47;8.00;93.00
3406;DHT22;10008;48.682;9.016;2023-12-28T02:30:16;8.10;91.40
3406;DHT22;10008;48.682;9.016;2023-12-28T02:32:44;8.30;91.80
3406;DHT22;10008;48.682;9.016;2023-12-28T02:35:19;8.40;91.60
3406;DHT22;10008;48.682;9.016;2023-12-28T02:37:50;8.30;92.60
3406;DHT22;10008;48.682;9.016;2023-12-28T02:40:18;8.30;92.20
3406;DHT22;10008;48.682;9.016;2023-12-28T02:42:43;8.20;92.40
3406;DHT22;10008;48.682;9.016;2023-12-28T02:45:09;8.30;89.40
3406;DHT22;10008;48.682;9.016;2023-12-28T02:47:36;8.40;90.00
3406;DHT22;10008;48.682;9.016;2023-12-28T02:50:02;8.50;88.60
3406;DHT22;10008;48.682;9.016;2023-12-28T02:52:28;8.70;87.50
3406;DHT22;10008;48.682;9.016;2023-12-28T02:54:53;8.80;89.30
3406;DHT22;10008;48.682;9.016;2023-12-28T02:57:19;8.80;89.60
3406;DHT22;10008;48.682;9.016;2023-12-28T02:59:45;8.90;86.70
3406;DHT22;10008;48.682;9.016;2023-12-28T03:02:11;9.00;87.90
3406;DHT22;10008;48.682;9.016;2023-12-28T03:04:36;9.00;88.50
3406;DHT22;10008;48.682;9.016;2023-12-28T03:07:02;9.00;89.40
3406;DHT22;10008;48.682;9.016;2023-12-28T03:09:28;9.00;86.70
3406;DHT22;10008;48.682;9.016;2023-12-28T03:11:54;9.20;84.30
3406;DHT22;10008;48.682;9.016;2023-12-28T03:14:21;9.30;86.60
3406;DHT22;10008;48.682;9.016;2023-12-28T03:16:47;9.40;85.40
3406;DHT22;10008;48.682;9.016;2023-12-28T03:19:12;9.40;85.60
3406;DHT22;10008;48.682;9.016;2023-12-28T03:21:39;9.40;86.40
3406;DHT22;10008;48.682;9.016;2023-12-28T03:24:06;9.40;83.60
3406;DHT22;10008;48.682;9.016;2023-12-28T03:26:32;9.40;85.40
3406;DHT22;10008;48.682;9.016;2023-12-28T03:29:01;9.40;83.80
3406;DHT22;10008;48.682;9.016;2023-12-28T03:31:27;9.40;86.00
3406;DHT22;10008;48.682;9.016;2023-12-28T03:33:52;9.40;85.50
3406;DHT22;10008;48.682;9.016;2023-12-28T03:36:19;9.40;86.60
3406;DHT22;10008;48.682;9.016;2023-12-28T03:38:45;9.40;87.00
3406;DHT22;10008;48.682;9.016;2023-12-28T03:41:20;9.40;86.50
3406;DHT22;10008;48.682;9.016;2023-12-28T03:43:47;9.30;85.60
3406;DHT22;10008;48.682;9.016;2023-12-28T03:46:13;9.30;86.40
3406;DHT22;10008;48.682;9.016;2023-12-28T03:48:39;9.30;85.80
3406;DHT22;10008;48.682;9.016;2023-12-28T03:51:05;9.30;83.80
3406;DHT22;10008;48.682;9.016;2023-12-28T03:53:32;9.30;84.80
3406;DHT22;10008;48.682;9.016;2023-12-28T03:56:01;9.20;85.00
3406;DHT22;10008;48.682;9.016;2023-12-28T03:58:26;9.10;85.40
3406;DHT22;10008;48.682;9.016;2023-12-28T04:00:52;9.00;85.90
3406;DHT22;10008;48.682;9.016;2023-12-28T04:03:18;8.90;87.30
3406;DHT22;10008;48.682;9.016;2023-12-28T04:05:44;8.80;86.80
3406;DHT22;10008;48.682;9.016;2023-12-28T04:08:10;8.70;87.70
3406;DHT22;10008;48.682;9.016;2023-12-28T04:10:36;8.70;87.70
3406;DHT22;10008;48.682;9.016;2023-12-28T04:13:04;8.70;87.70
3406;DHT22;10008;48.682;9.016;2023-12-28T04:15:30;8.70;87.00
3406;DHT22;10008;48.682;9.016;2023-12-28T04:17:56;8.80;87.60
3406;DHT22;10008;48.682;9.016;2023-12-28T04:20:23;8.80;88.10
3406;DHT22;10008;48.682;9.016;2023-12-28T04:22:49;8.80;87.20
3406;DHT22;10008;48.682;9.016;2023-12-28T04:25:15;8.90;86.70
3406;DHT22;10008;48.682;9.016;2023-12-28T04:27:44;9.00;86.40
3406;DHT22;10008;48.682;9.016;2023-12-28T04:30:12;9.10;86.10
3406;DHT22;10008;48.682;9.016;2023-12-28T04:32:38;9.10;87.10
3406;DHT22;10008;48.682;9.016;2023-12-28T04:35:05;9.20;87.40
3406;DHT22;10008;48.682;9.016;2023-12-28T04:37:34;9.20;86.60
3406;DHT22;10008;48.682;9.016;2023-12-28T04:40:01;9.40;87.50
3406;DHT22;10008;48.682;9.016;2023-12-28T04:42:28;9.50;87.50
3406;DHT22;10008;48.682;9.016;2023-12-28T04:44:54;9.60;87.40
3406;DHT22;10008;48.682;9.016;2023-12-28T04:47:19;9.70;87.30
3406;DHT22;10008;48.682;9.016;2023-12-28T04:49:45;9.80;87.00
3406;DHT22;10008;48.682;9.016;2023-12-28T04:52:11;9.80;86.50
3406;DHT22;10008;48.682;9.016;2023-12-28T04:54:40;9.90;87.00
3406;DHT22;10008;48.682;9.016;2023-12-28T04:57:06;9.90;87.90
3406;DHT22;10008;48.682;9.016;2023-12-28T04:59:38;9.90;88.10
3406;DHT22;10008;48.682;9.016;2023-12-28T05:02:04;9.90;88.20
3406;DHT22;10008;48.682;9.016;2023-12-28T05:04:30;9.90;88.20
3406;DHT22;10008;48.682;9.016;2023-12-28T05:06:56;9.80;88.30
3406;DHT22;10008;48.682;9.016;2023-12-28T05:09:22;9.80;88.50
3406;DHT22;10008;48.682;9.016;2023-12-28T05:11:47;9.80;89.30
3406;DHT22;10008;48.682;9.016;2023-12-28T05:14:13;9.80;90.30
3406;DHT22;10008;48.682;9.016;2023-12-28T05:16:39;9.70;89.80
3406;DHT22;10008;48.682;9.016;2023-12-28T05:19:05;9.70;91.20
3406;DHT22;10008;48.682;9.016;2023-12-28T05:21:30;9.70;91.10
3406;DHT22;10008;48.682;9.016;2023-12-28T05:23:56;9.70;91.30
3406;DHT22;10008;48.682;9.016;2023-12-28T05:26:22;9.70;90.60
3406;DHT22;10008;48.682;9.016;2023-12-28T05:28:48;9.80;91.30
3406;DHT22;10008;48.682;9.016;2023-12-28T05:31:14;9.80;91.50
3406;DHT22;10008;48.682;9.016;2023-12-28T05:33:40;9.90;91.30
3406;DHT22;10008;48.682;9.016;2023-12-28T05:36:06;10.00;90.70
3406;DHT22;10008;48.682;9.016;2023-12-28T05:38:32;10.00;91.20
3406;DHT22;10008;48.682;9.016;2023-12-28T05:40:57;9.90;91.80
3406;DHT22;10008;48.682;9.016;2023-12-28T05:43:23;9.90;92.70
3406;DHT22;10008;48.682;9.016;2023-12-28T05:45:49;9.90;92.00
3406;DHT22;10008;48.682;9.016;2023-12-28T05:48:15;9.80;92.90
3406;DHT22;10008;48.682;9.016;2023-12-28T05:50:40;9.80;93.00
3406;DHT22;10008;48.682;9.016;2023-12-28T05:53:06;9.70;93.20
3406;DHT22;10008;48.682;9.016;2023-12-28T05:55:32;9.70;93.40
3406;DHT22;10008;48.682;9.016;2023-12-28T05:57:57;9.70;93.80
3406;DHT22;10008;48.682;9.016;2023-12-28T06:00:23;9.70;93.50
3406;DHT22;10008;48.682;9.016;2023-12-28T06:02:49;9.70;94.00
3406;DHT22;10008;48.682;9.016;2023-12-28T06:05:18;9.70;94.00
3406;DHT22;10008;48.682;9.016;2023-12-28T06:07:44;9.60;93.60
3406;DHT22;10008;48.682;9.016;2023-12-28T06:10:10;9.50;93.80
3406;DHT22;10008;48.682;9.016;2023-12-28T06:12:35;9.60;95.20
3406;DHT22;10008;48.682;9.016;2023-12-28T06:15:02;9.60;95.40
3406;DHT22;10008;48.682;9.016;2023-12-28T06:17:28;9.60;95.60
3406;DHT22;10008;48.682;9.016;2023-12-28T06:19:54;9.60;95.70
3406;DHT22;10008;48.682;9.016;2023-12-28T06:22:20;9.70;96.50
3406;DHT22;10008;48.682;9.016;2023-12-28T06:24:45;9.70;96.50
3406;DHT22;10008;48.682;9.016;2023-12-28T06:27:11;9.70;96.80
3406;DHT22;10008;48.682;9.016;2023-12-28T06:29:37;9.80;97.60
3406;DHT22;10008;48.682;9.016;2023-12-28T06:32:03;9.80;98.00
3406;DHT22;10008;48.682;9.016;2023-12-28T06:34:29;9.70;97.70
3406;DHT22;10008;48.682;9.016;2023-12-28T06:36:54;9.80;98.30
3406;DHT22;10008;48.682;9.016;2023-12-28T06:39:20;9.70;97.70
3406;DHT22;10008;48.682;9.016;2023-12-28T06:41:49;9.80;97.80
3406;DHT22;10008;48.682;9.016;2023-12-28T06:44:15;9.80;98.50
3406;DHT22;10008;48.682;9.016;2023-12-28T06:46:41;9.80;98.60
3406;DHT22;10008;48.682;9.016;2023-12-28T06:49:07;9.80;98.70
3406;DHT22;10008;48.682;9.016;2023-12-28T06:51:32;9.80;97.90
3406;DHT22;10008;48.682;9.016;2023-12-28T06:53:58;9.90;97.70
3406;DHT22;10008;48.682;9.016;2023-12-28T06:56:25;9.90;98.40
3406;DHT22;10008;48.682;9.016;2023-12-28T06:58:50;9.90;97.50
3406;DHT22;10008;48.682;9.016;2023-12-28T07:01:16;10.00;96.90
3406;DHT22;10008;48.682;9.016;2023-12-28T07:03:42;10.00;96.70
3406;DHT22;10008;48.682;9.016;2023-12-28T07:06:08;10.00;97.30
3406;DHT22;10008;48.682;9.016;2023-12-28T07:08:34;10.10;96.40
3406;DHT22;10008;48.682;9.016;2023-12-28T07:10:59;10.10;97.00
3406;DHT22;10008;48.682;9.016;2023-12-28T07:13:27;10.10;96.90
3406;DHT22;10008;48.682;9.016;2023-12-28T07:15:52;10.20;95.30
3406;DHT22;10008;48.682;9.016;2023-12-28T07:18:19;10.20;95.10
3406;DHT22;10008;48.682;9.016;2023-12-28T07:20:44;10.20;96.60
3406;DHT22;10008;48.682;9.016;2023-12-28T07:23:10;10.20;96.20
3406;DHT22;10008;48.682;9.016;2023-12-28T07:25:36;10.30;96.30
3406;DHT22;10008;48.682;9.016;2023-12-28T07:28:01;10.20;96.30
3406;DHT22;10008;48.682;9.016;2023-12-28T07:30:28;10.20;97.00
3406;DHT22;10008;48.682;9.016;2023-12-28T07:32:53;10.20;95.90
3406;DHT22;10008;48.682;9.016;2023-12-28T07:35:19;10.30;97.10
3406;DHT22;10008;48.682;9.016;2023-12-28T07:37:45;10.30;96.30
3406;DHT22;10008;48.682;9.016;2023-12-28T07:40:12;10.30;96.50
3406;DHT22;10008;48.682;9.016;2023-12-28T07:42:38;10.30;96.50
3406;DHT22;10008;48.682;9.016;2023-12-28T07:45:04;10.30;96.80
3406;DHT22;10008;48.682;9.016;2023-12-28T07:47:30;10.40;97.50
3406;DHT22;10008;48.682;9.016;2023-12-28T07:49:56;10.40;96.80
3406;DHT22;10008;48.682;9.016;2023-12-28T07:52:22;10.40;97.10
3406;DHT22;10008;48.682;9.016;2023-12-28T07:54:48;10.40;96.70
3406;DHT22;10008;48.682;9.016;2023-12-28T07:57:13;10.40;96.90
3406;DHT22;10008;48.682;9.016;2023-12-28T07:59:39;10.50;96.60
3406;DHT22;10008;48.682;9.016;2023-12-28T08:02:05;10.50;97.00
3406;DHT22;10008;48.682;9.016;2023-12-28T08:04:31;10.50;97.20
3406;DHT22;10008;48.682;9.016;2023-12-28T08:06:57;10.50;97.20
3406;DHT22;10008;48.682;9.016;2023-12-28T08:09:23;10.50;97.10
3406;DHT22;10008;48.682;9.016;2023-12-28T08:11:49;10.60;97.60
3406;DHT22;10008;48.682;9.016;2023-12-28T08:14:15;10.60;97.10
3406;DHT22;10008;48.682;9.016;2023-12-28T08:16:41;10.60;97.00
3406;DHT22;10008;48.682;9.016;2023-12-28T08:19:07;10.60;96.90
3406;DHT22;10008;48.682;9.016;2023-12-28T08:21:33;10.70;96.90
3406;DHT22;10008;48.682;9.016;2023-12-28T08:23:58;10.60;97.00
3406;DHT22;10008;48.682;9.016;2023-12-28T08:26:24;10.60;96.40
3406;DHT22;10008;48.682;9.016;2023-12-28T08:28:50;10.60;96.60
3406;DHT22;10008;48.682;9.016;2023-12-28T08:31:16;10.60;97.30
3406;DHT22;10008;48.682;9.016;2023-12-28T08:33:43;10.60;98.10
3406;DHT22;10008;48.682;9.016;2023-12-28T08:36:09;10.60;98.70
3406;DHT22;10008;48.682;9.016;2023-12-28T08:38:35;10.50;99.10
3406;DHT22;10008;48.682;9.016;2023-12-28T08:41:00;10.50;98.50
3406;DHT22;10008;48.682;9.016;2023-12-28T08:43:29;10.40;99.60
3406;DHT22;10008;48.682;9.016;2023-12-28T08:45:55;10.40;99.90
3406;DHT22;10008;48.682;9.016;2023-12-28T08:48:21;10.40;99.90
3406;DHT22;10008;48.682;9.016;2023-12-28T08:50:47;10.30;99.90
3406;DHT22;10008;48.682;9.016;2023-12-28T08:53:13;10.30;99.90
3406;DHT22;10008;48.682;9.016;2023-12-28T08:55:39;10.30;99.90
3406;DHT22;10008;48.682;9.016;2023-12-28T08:58:04;10.30;99.50
3406;DHT22;10008;48.682;9.016;2023-12-28T09:00:30;10.40;99.80
3406;DHT22;10008;48.682;9.016;2023-12-28T09:02:56;10.50;99.70
3406;DHT22;10008;48.682;9.016;2023-12-28T09:05:21;10.40;97.90
3406;DHT22;10008;48.682;9.016;2023-12-28T09:07:47;10.40;98.80
3406;DHT22;10008;48.682;9.016;2023-12-28T09:10:13;10.50;98.40
3406;DHT22;10008;48.682;9.016;2023-12-28T09:12:40;10.50;98.60
3406;DHT22;10008;48.682;9.016;2023-12-28T09:15:07;10.60;99.50
3406;DHT22;10008;48.682;9.016;2023-12-28T09:17:34;10.60;99.90
3406;DHT22;10008;48.682;9.016;2023-12-28T09:19:59;10.50;99.40
3406;DHT22;10008;48.682;9.016;2023-12-28T09:22:27;10.50;98.60
3406;DHT22;10008;48.682;9.016;2023-12-28T09:24:53;10.60;98.30
3406;DHT22;10008;48.682;9.016;2023-12-28T09:27:19;10.60;98.80
3406;DHT22;10008;48.682;9.016;2023-12-28T09:29:44;10.60;99.00
3406;DHT22;10008;48.682;9.016;2023-12-28T09:32:11;10.60;99.50
3406;DHT22;10008;48.682;9.016;2023-12-28T09:34:37;10.50;99.40
3406;DHT22;10008;48.682;9.016;2023-12-28T09:37:02;10.50;99.60
3406;DHT22;10008;48.682;9.016;2023-12-28T09:39:28;10.60;99.90
3406;DHT22;10008;48.682;9.016;2023-12-28T09:42:06;10.50;99.90
3406;DHT22;10008;48.682;9.016;2023-12-28T09:44:38;10.50;99.90
3406;DHT22;10008;48.682;9.016;2023-12-28T09:47:04;10.50;99.90
3406;DHT22;10008;48.682;9.016;2023-12-28T09:49:32;10.60;99.90
3406;DHT22;10008;48.682;9.016;2023-12-28T09:51:59;10.60;99.30
3406;DHT22;10008;48.682;9.016;2023-12-28T09:54:25;10.50;99.30
3406;DHT22;10008;48.682;9.016;2023-12-28T09:56:51;10.60;98.90
3406;DHT22;10008;48.682;9.016;2023-12-28T09:59:19;10.60;98.70
3406;DHT22;10008;48.682;9.016;2023-12-28T10:01:47;10.50;99.30
3406;DHT22;10008;48.682;9.016;2023-12-28T10:04:14;10.50;98.30
3406;DHT22;10008;48.682;9.016;2023-12-28T10:06:40;10.50;98.80
3406;DHT22;10008;48.682;9.016;2023-12-28T10:09:06;10.50;98.30
3406;DHT22;10008;48.682;9.016;2023-12-28T10:11:33;10.50;98.40
3406;DHT22;10008;48.682;9.016;2023-12-28T10:13:59;10.50;98.60
3406;DHT22;10008;48.682;9.016;2023-12-28T10:16:25;10.50;99.00
3406;DHT22;10008;48.682;9.016;2023-12-28T10:18:52;10.50;99.20
3406;DHT22;10008;48.682;9.016;2023-12-28T10:21:18;10.50;99.90
3406;DHT22;10008;48.682;9.016;2023-12-28T10:23:43;10.50;99.60
3406;DHT22;10008;48.682;9.016;2023-12-28T10:26:10;10.50;99.90
3406;DHT22;10008;48.682;9.016;2023-12-28T10:28:36;10.50;99.90
3406;DHT22;10008;48.682;9.016;2023-12-28T10:31:05;10.50;99.90
3406;DHT22;10008;48.682;9.016;2023-12-28T10:33:37;10.60;99.90
3406;DHT22;10008;48.682;9.016;2023-12-28T10:36:13;10.50;99.90
3406;DHT22;10008;48.682;9.016;2023-12-28T10:38:41;10.50;99.90
3406;DHT22;10008;48.682;9.016;2023-12-28T10:41:10;10.50;99.90
3406;DHT22;10008;48.682;9.016;2023-12-28T10:43:53;10.60;99.90
3406;DHT22;10008;48.682;9.016;2023-12-28T10:46:25;10.60;99.90
3406;DHT22;10008;48.682;9.016;2023-12-28T10:49:08;10.70;99.90
3406;DHT22;10008;48.682;9.016;2023-12-28T10:51:36;10.80;99.90
3406;DHT22;10008;48.682;9.016;2023-12-28T10:57:05;10.90;99.90
3406;DHT22;10008;48.682;9.016;2023-12-28T11:01:59;10.80;99.90
3406;DHT22;10008;48.682;9.016;2023-12-28T11:07:00;10.90;99.90
3406;DHT22;10008;48.682;9.016;2023-12-28T11:09:30;10.90;99.90
3406;DHT22;10008;48.682;9.016;2023-12-28T11:11:57;10.90;99.90
3406;DHT22;10008;48.682;9.016;2023-12-28T11:14:27;11.00;99.90
3406;DHT22;10008;48.682;9.016;2023-12-28T11:16:53;11.00;99.90
3406;DHT22;10008;48.682;9.016;2023-12-28T11:19:21;11.00;99.90
3406;DHT22;10008;48.682;9.016;2023-12-28T11:21:51;11.00;99.90
3406;DHT22;10008;48.682;9.016;2023-12-28T11:24:18;11.10;99.90
3406;DHT22;10008;48.682;9.016;2023-12-28T11:26:44;11.20;99.90
3406;DHT22;10008;48.682;9.016;2023-12-28T11:29:11;11.10;99.90
3406;DHT22;10008;48.682;9.016;2023-12-28T11:31:37;11.10;99.90
3406;DHT22;10008;48.682;9.016;2023-12-28T11:34:06;11.10;99.90
3406;DHT22;10008;48.682;9.016;2023-12-28T11:36:43;11.10;99.90
3406;DHT22;10008;48.682;9.016;2023-12-28T11:39:10;11.10;99.90
3406;DHT22;10008;48.682;9.016;2023-12-28T11:41:36;11.10;99.90
3406;DHT22;10008;48.682;9.016;2023-12-28T11:44:03;11.20;99.90
3406;DHT22;10008;48.682;9.016;2023-12-28T11:46:32;11.10;99.90
3406;DHT22;10008;48.682;9.016;2023-12-28T11:49:09;11.10;99.90
3406;DHT22;10008;48.682;9.016;2023-12-28T11:51:38;11.10;99.90
3406;DHT22;10008;48.682;9.016;2023-12-28T11:54:05;11.10;99.90
3406;DHT22;10008;48.682;9.016;2023-12-28T11:56:31;11.10;99.90
3406;DHT22;10008;48.682;9.016;2023-12-28T11:59:00;11.20;99.90
3406;DHT22;10008;48.682;9.016;2023-12-28T12:01:26;11.20;99.90
3406;DHT22;10008;48.682;9.016;2023-12-28T12:03:53;11.20;99.90
3406;DHT22;10008;48.682;9.016;2023-12-28T12:06:19;11.20;99.90
3406;DHT22;10008;48.682;9.016;2023-12-28T12:08:45;11.30;99.90
3406;DHT22;10008;48.682;9.016;2023-12-28T12:11:12;11.20;99.90
3406;DHT22;10008;48.682;9.016;2023-12-28T12:13:38;11.30;99.90
3406;DHT22;10008;48.682;9.016;2023-12-28T12:16:04;11.40;99.90
3406;DHT22;10008;48.682;9.016;2023-12-28T12:18:32;11.40;99.90
3406;DHT22;10008;48.682;9.016;2023-12-28T12:20:58;11.40;99.90
3406;DHT22;10008;48.682;9.016;2023-12-28T12:23:24;11.40;99.90
3406;DHT22;10008;48.682;9.016;2023-12-28T12:25:51;11.30;99.90
3406;DHT22;10008;48.682;9.016;2023-12-28T12:28:16;11.40;99.90
3406;DHT22;10008;48.682;9.016;2023-12-28T12:30:53;11.40;99.90
3406;DHT22;10008;48.682;9.016;2023-12-28T12:33:20;11.50;99.90
3406;DHT22;10008;48.682;9.016;2023-12-28T12:35:46;11.50;99.90
3406;DHT22;10008;48.682;9.016;2023-12-28T12:38:12;11.40;99.90
3406;DHT22;10008;48.682;9.016;2023-12-28T12:40:38;11.40;99.90
3406;DHT22;10008;48.682;9.016;2023-12-28T12:43:03;11.40;99.90
3406;DHT22;10008;48.682;9.016;2023-12-28T12:45:29;11.40;99.90
3406;DHT22;10008;48.682;9.016;2023-12-28T12:47:55;11.40;99.90
3406;DHT22;10008;48.682;9.016;2023-12-28T12:50:22;11.40;99.90
3406;DHT22;10008;48.682;9.016;2023-12-28T12:52:48;11.30;99.90
3406;DHT22;10008;48.682;9.016;2023-12-28T12:55:14;11.30;99.90
3406;DHT22;10008;48.682;9.016;2023-12-28T12:57:40;11.20;99.90
3406;DHT22;10008;48.682;9.016;2023-12-28T13:00:09;11.20;99.90
3406;DHT22;10008;48.682;9.016;2023-12-28T13:02:35;11.20;99.90
3406;DHT22;10008;48.682;9.016;2023-12-28T13:05:04;11.20;99.90
3406;DHT22;10008;48.682;9.016;2023-12-28T13:07:33;11.10;99.90
3406;DHT22;10008;48.682;9.016;2023-12-28T13:09:59;11.10;99.90
3406;DHT22;10008;48.682;9.016;2023-12-28T13:12:25;11.00;99.90
3406;DHT22;10008;48.682;9.016;2023-12-28T13:14:51;10.90;99.90
3406;DHT22;10008;48.682;9.016;2023-12-28T13:17:17;10.70;99.90
3406;DHT22;10008;48.682;9.016;2023-12-28T13:19:43;10.70;99.90
3406;DHT22;10008;48.682;9.016;2023-12-28T13:22:08;10.70;99.90
3406;DHT22;10008;48.682;9.016;2023-12-28T13:24:34;10.60;99.90
3406;DHT22;10008;48.682;9.016;2023-12-28T13:27:00;10.60;99.90
3406;DHT22;10008;48.682;9.016;2023-12-28T13:29:26;10.50;99.90
3406;DHT22;10008;48.682;9.016;2023-12-28T13:31:52;10.40;99.90
3406;DHT22;10008;48.682;9.016;2023-12-28T13:34:19;10.40;99.90
3406;DHT22;10008;48.682;9.016;2023-12-28T13:36:45;10.40;99.90
3406;DHT22;10008;48.682;9.016;2023-12-28T13:39:11;10.40;99.90
3406;DHT22;10008;48.682;9.016;2023-12-28T13:41:40;10.50;99.90
3406;DHT22;10008;48.682;9.016;2023-12-28T13:44:06;10.60;99.90
3406;DHT22;10008;48.682;9.016;2023-12-28T13:46:36;10.60;99.90
3406;DHT22;10008;48.682;9.016;2023-12-28T13:49:02;10.60;99.90
3406;DHT22;10008;48.682;9.016;2023-12-28T13:51:35;10.70;99.90
3406;DHT22;10008;48.682;9.016;2023-12-28T13:54:01;10.70;99.90
3406;DHT22;10008;48.682;9.016;2023-12-28T13:56:27;10.60;99.90
3406;DHT22;10008;48.682;9.016;2023-12-28T13:58:54;10.70;99.90
3406;DHT22;10008;48.682;9.016;2023-12-28T14:01:20;10.60;99.90
3406;DHT22;10008;48.682;9.016;2023-12-28T14:03:46;10.70;99.90
3406;DHT22;10008;48.682;9.016;2023-12-28T14:06:14;10.60;99.90
3406;DHT22;10008;48.682;9.016;2023-12-28T14:08:40;10.70;99.90
3406;DHT22;10008;48.682;9.016;2023-12-28T14:11:05;10.60;99.90
3406;DHT22;10008;48.682;9.016;2023-12-28T14:13:31;10.60;99.90
3406;DHT22;10008;48.682;9.016;2023-12-28T14:15:57;10.40;99.90
3406;DHT22;10008;48.682;9.016;2023-12-28T14:18:22;10.40;99.90
3406;DHT22;10008;48.682;9.016;2023-12-28T14:20:48;10.30;99.90
3406;DHT22;10008;48.682;9.016;2023-12-28T14:23:14;10.30;99.90
3406;DHT22;10008;48.682;9.016;2023-12-28T14:25:40;10.20;99.90
3406;DHT22;10008;48.682;9.016;2023-12-28T14:28:06;10.20;99.90
3406;DHT22;10008;48.682;9.016;2023-12-28T14:30:32;10.10;99.90
3406;DHT22;10008;48.682;9.016;2023-12-28T14:32:58;10.10;99.90
3406;DHT22;10008;48.682;9.016;2023-12-28T14:35:25;10.10;99.90
3406;DHT22;10008;48.682;9.016;2023-12-28T14:37:51;10.10;99.90
3406;DHT22;10008;48.682;9.016;2023-12-28T14:40:16;10.00;99.90
3406;DHT22;10008;48.682;9.016;2023-12-28T14:42:42;10.00;99.90
3406;DHT22;10008;48.682;9.016;2023-12-28T14:45:08;10.10;99.90
3406;DHT22;10008;48.682;9.016;2023-12-28T14:47:34;10.00;99.90
3406;DHT22;10008;48.682;9.016;2023-12-28T14:50:01;10.00;99.90
3406;DHT22;10008;48.682;9.016;2023-12-28T14:52:27;10.00;99.90
3406;DHT22;10008;48.682;9.016;2023-12-28T14:54:54;10.00;99.90
3406;DHT22;10008;48.682;9.016;2023-12-28T14:57:21;10.00;99.90
3406;DHT22;10008;48.682;9.016;2023-12-28T14:59:47;10.00;99.90
3406;DHT22;10008;48.682;9.016;2023-12-28T15:02:13;10.00;99.90
3406;DHT22;10008;48.682;9.016;2023-12-28T15:04:38;9.90;99.90
3406;DHT22;10008;48.682;9.016;2023-12-28T15:07:06;9.90;99.90
3406;DHT22;10008;48.682;9.016;2023-12-28T15:09:32;10.00;99.90
3406;DHT22;10008;48.682;9.016;2023-12-28T15:11:59;9.90;99.90
3406;DHT22;10008;48.682;9.016;2023-12-28T15:14:25;9.90;99.90
3406;DHT22;10008;48.682;9.016;2023-12-28T15:16:51;9.80;99.90
3406;DHT22;10008;48.682;9.016;2023-12-28T15:19:17;9.80;99.90
3406;DHT22;10008;48.682;9.016;2023-12-28T15:21:43;9.80;99.90
3406;DHT22;10008;48.682;9.016;2023-12-28T15:24:11;9.80;99.90
3406;DHT22;10008;48.682;9.016;2023-12-28T15:26:37;9.70;99.90
3406;DHT22;10008;48.682;9.016;2023-12-28T15:29:03;9.70;99.90
3406;DHT22;10008;48.682;9.016;2023-12-28T15:31:29;9.70;99.90
3406;DHT22;10008;48.682;9.016;2023-12-28T15:33:55;9.70;99.90
3406;DHT22;10008;48.682;9.016;2023-12-28T15:36:22;9.60;99.90
3406;DHT22;10008;48.682;9.016;2023-12-28T15:38:48;9.60;99.90
3406;DHT22;10008;48.682;9.016;2023-12-28T15:41:14;9.60;99.90
3406;DHT22;10008;48.682;9.016;2023-12-28T15:43:40;9.60;99.90
3406;DHT22;10008;48.682;9.016;2023-12-28T15:46:06;9.60;99.90
3406;DHT22;10008;48.682;9.016;2023-12-28T15:48:32;9.60;99.90
3406;DHT22;10008;48.682;9.016;2023-12-28T15:50:57;9.60;99.90
3406;DHT22;10008;48.682;9.016;2023-12-28T15:53:23;9.60;99.90
3406;DHT22;10008;48.682;9.016;2023-12-28T15:55:49;9.60;99.90
3406;DHT22;10008;48.682;9.016;2023-12-28T15:58:15;9.50;99.90